sensor_id;sensor_type;location;lat;lon;timestamp;pressure;altitude;pressure_sealevel;temperature;humidity
42411;BME280;28056;51.112;0.984;2023-02-28T00:00:14;102208.53;;;10.29;40.62
42411;BME280;28056;51.112;0.984;2023-02-28T00:02:43;102208.10;;;10.10;40.84
42411;BME280;28056;51.112;0.984;2023-02-28T00:05:13;102205.23;;;10.28;40.93
42411;BME280;28056;51.112;0.984;2023-02-28T00:07:41;102208.17;;;10.07;41.23
42411;BME280;28056;51.112;0.984;2023-02-28T00:10:11;102210.01;;;9.81;38.87
42411;BME280;28056;51.112;0.984;2023-02-28T00:12:40;102212.71;;;9.94;41.32
42411;BME280;28056;51.112;0.984;2023-02-28T00:15:09;102213.73;;;9.74;42.22
42411;BME280;28056;51.112;0.984;2023-02-28T00:17:37;102214.05;;;9.77;41.70
42411;BME280;28056;51.112;0.984;2023-02-28T00:20:07;102214.66;;;9.77;41.53
42411;BME280;28056;51.112;0.984;2023-02-28T00:22:35;102214.32;;;9.41;43.34
42411;BME280;28056;51.112;0.984;2023-02-28T00:25:03;102213.62;;;9.72;40.30
42411;BME280;28056;51.112;0.984;2023-02-28T00:27:30;102211.50;;;9.57;40.54
42411;BME280;28056;51.112;0.984;2023-02-28T00:29:58;102210.12;;;9.58;39.20
42411;BME280;28056;51.112;0.984;2023-02-28T00:32:25;102209.60;;;9.59;44.29
42411;BME280;28056;51.112;0.984;2023-02-28T00:34:52;102211.73;;;9.91;39.53
42411;BME280;28056;51.112;0.984;2023-02-28T00:37:19;102207.49;;;9.69;44.45
42411;BME280;28056;51.112;0.984;2023-02-28T00:39:46;102212.21;;;9.60;43.08
42411;BME280;28056;51.112;0.984;2023-02-28T00:42:13;102214.62;;;9.92;44.85
42411;BME280;28056;51.112;0.984;2023-02-28T00:44:40;102208.36;;;10.13;45.14
42411;BME280;28056;51.112;0.984;2023-02-28T00:47:07;102202.08;;;10.30;42.45
42411;BME280;28056;51.112;0.984;2023-02-28T00:49:35;102202.81;;;9.90;42.05
42411;BME280;28056;51.112;0.984;2023-02-28T00:52:03;102207.23;;;9.71;42.82
42411;BME280;28056;51.112;0.984;2023-02-28T00:54:30;102203.93;;;9.64;46.86
42411;BME280;28056;51.112;0.984;2023-02-28T00:56:57;102193.78;;;9.76;44.31
42411;BME280;28056;51.112;0.984;2023-02-28T00:59:25;102191.40;;;10.29;44.14
42411;BME280;28056;51.112;0.984;2023-02-28T01:04:47;102192.40;;;9.99;43.25
42411;BME280;28056;51.112;0.984;2023-02-28T01:07:15;102194.18;;;10.07;41.35
42411;BME280;28056;51.112;0.984;2023-02-28T01:09:42;102197.38;;;9.79;41.18
42411;BME280;28056;51.112;0.984;2023-02-28T01:12:09;102195.79;;;9.54;43.47
42411;BME280;28056;51.112;0.984;2023-02-28T01:14:36;102194.53;;;9.69;45.16
42411;BME280;28056;51.112;0.984;2023-02-28T01:17:03;102198.48;;;9.59;43.48
42411;BME280;28056;51.112;0.984;2023-02-28T01:19:31;102195.77;;;9.46;43.56
42411;BME280;28056;51.112;0.984;2023-02-28T01:22:01;102192.69;;;9.79;44.38
42411;BME280;28056;51.112;0.984;2023-02-28T01:24:28;102190.33;;;9.71;43.32
42411;BME280;28056;51.112;0.984;2023-02-28T01:26:55;102188.55;;;9.76;45.81
42411;BME280;28056;51.112;0.984;2023-02-28T01:29:23;102191.59;;;9.69;45.03
42411;BME280;28056;51.112;0.984;2023-02-28T01:31:50;102190.98;;;9.62;42.15
42411;BME280;28056;51.112;0.984;2023-02-28T01:34:17;102189.18;;;9.16;44.85
42411;BME280;28056;51.112;0.984;2023-02-28T01:36:44;102189.68;;;9.35;45.10
42411;BME280;28056;51.112;0.984;2023-02-28T01:39:12;102186.73;;;9.45;43.35
42411;BME280;28056;51.112;0.984;2023-02-28T01:41:40;102191.04;;;9.21;44.10
42411;BME280;28056;51.112;0.984;2023-02-28T01:44:57;102190.40;;;9.07;44.60
42411;BME280;28056;51.112;0.984;2023-02-28T01:47:26;102189.43;;;9.30;44.28
42411;BME280;28056;51.112;0.984;2023-02-28T01:49:55;102187.16;;;8.92;45.03
42411;BME280;28056;51.112;0.984;2023-02-28T01:52:22;102186.71;;;9.20;44.01
42411;BME280;28056;51.112;0.984;2023-02-28T01:54:53;102188.62;;;9.06;43.71
42411;BME280;28056;51.112;0.984;2023-02-28T01:57:24;102188.25;;;8.85;46.46
42411;BME280;28056;51.112;0.984;2023-02-28T01:59:56;102192.77;;;9.08;44.60
42411;BME280;28056;51.112;0.984;2023-02-28T02:02:25;102190.44;;;8.82;42.76
42411;BME280;28056;51.112;0.984;2023-02-28T02:04:56;102190.13;;;8.79;46.27
42411;BME280;28056;51.112;0.984;2023-02-28T02:07:26;102193.59;;;8.83;45.11
42411;BME280;28056;51.112;0.984;2023-02-28T02:10:00;102194.49;;;8.96;48.17
42411;BME280;28056;51.112;0.984;2023-02-28T02:12:35;102191.68;;;8.96;47.37
42411;BME280;28056;51.112;0.984;2023-02-28T02:15:12;102193.02;;;8.99;45.40
42411;BME280;28056;51.112;0.984;2023-02-28T02:17:44;102188.91;;;8.85;47.66
42411;BME280;28056;51.112;0.984;2023-02-28T02:20:47;102189.28;;;9.04;46.20
42411;BME280;28056;51.112;0.984;2023-02-28T02:23:33;102187.61;;;9.10;46.51
42411;BME280;28056;51.112;0.984;2023-02-28T02:26:27;102189.10;;;9.40;46.22
42411;BME280;28056;51.112;0.984;2023-02-28T02:29:17;102186.43;;;9.50;47.53
42411;BME280;28056;51.112;0.984;2023-02-28T02:32:08;102181.57;;;9.34;48.16
42411;BME280;28056;51.112;0.984;2023-02-28T02:34:42;102182.83;;;9.34;46.86
42411;BME280;28056;51.112;0.984;2023-02-28T02:37:22;102185.44;;;9.60;43.30
42411;BME280;28056;51.112;0.984;2023-02-28T02:39:56;102179.64;;;9.49;42.04
42411;BME280;28056;51.112;0.984;2023-02-28T02:42:31;102176.41;;;9.48;44.05
42411;BME280;28056;51.112;0.984;2023-02-28T02:45:07;102174.69;;;9.28;45.74
42411;BME280;28056;51.112;0.984;2023-02-28T02:47:37;102173.70;;;9.65;43.71
42411;BME280;28056;51.112;0.984;2023-02-28T02:50:11;102177.90;;;9.51;45.97
42411;BME280;28056;51.112;0.984;2023-02-28T02:52:44;102182.14;;;9.48;43.42
42411;BME280;28056;51.112;0.984;2023-02-28T02:55:15;102185.75;;;9.48;46.12
42411;BME280;28056;51.112;0.984;2023-02-28T02:57:47;102187.18;;;9.21;45.42
42411;BME280;28056;51.112;0.984;2023-02-28T03:00:19;102188.51;;;9.65;44.20
42411;BME280;28056;51.112;0.984;2023-02-28T03:02:49;102189.48;;;9.40;45.23
42411;BME280;28056;51.112;0.984;2023-02-28T03:05:21;102190.58;;;9.78;47.46
42411;BME280;28056;51.112;0.984;2023-02-28T03:07:50;102187.62;;;9.85;44.73
42411;BME280;28056;51.112;0.984;2023-02-28T03:10:37;102192.92;;;9.59;45.65
42411;BME280;28056;51.112;0.984;2023-02-28T03:13:12;102191.07;;;9.78;44.52
42411;BME280;28056;51.112;0.984;2023-02-28T03:15:52;102193.27;;;9.61;45.54
42411;BME280;28056;51.112;0.984;2023-02-28T03:18:27;102193.96;;;9.72;43.27
42411;BME280;28056;51.112;0.984;2023-02-28T03:21:03;102190.05;;;9.52;44.89
42411;BME280;28056;51.112;0.984;2023-02-28T03:23:41;102187.38;;;10.12;44.68
42411;BME280;28056;51.112;0.984;2023-02-28T03:26:16;102184.95;;;9.58;45.07
42411;BME280;28056;51.112;0.984;2023-02-28T03:28:52;102185.89;;;9.78;43.52
42411;BME280;28056;51.112;0.984;2023-02-28T03:31:27;102188.97;;;10.08;43.48
42411;BME280;28056;51.112;0.984;2023-02-28T03:34:00;102197.57;;;10.06;43.93
42411;BME280;28056;51.112;0.984;2023-02-28T03:36:30;102199.42;;;9.52;44.33
42411;BME280;28056;51.112;0.984;2023-02-28T03:39:03;102204.55;;;9.43;44.36
42411;BME280;28056;51.112;0.984;2023-02-28T03:41:35;102198.79;;;9.70;41.93
42411;BME280;28056;51.112;0.984;2023-02-28T03:44:07;102199.37;;;9.10;41.67
42411;BME280;28056;51.112;0.984;2023-02-28T03:46:39;102200.55;;;9.40;44.85
42411;BME280;28056;51.112;0.984;2023-02-28T03:49:13;102199.07;;;9.14;43.52
42411;BME280;28056;51.112;0.984;2023-02-28T03:51:43;102196.64;;;9.44;44.22
42411;BME280;28056;51.112;0.984;2023-02-28T03:54:17;102196.16;;;9.37;45.16
42411;BME280;28056;51.112;0.984;2023-02-28T03:56:50;102200.23;;;9.67;42.14
42411;BME280;28056;51.112;0.984;2023-02-28T03:59:22;102198.96;;;9.27;44.15
42411;BME280;28056;51.112;0.984;2023-02-28T04:01:51;102203.28;;;9.34;44.79
42411;BME280;28056;51.112;0.984;2023-02-28T04:04:18;102202.16;;;9.45;43.22
42411;BME280;28056;51.112;0.984;2023-02-28T04:06:49;102200.38;;;8.88;44.39
42411;BME280;28056;51.112;0.984;2023-02-28T04:09:17;102201.09;;;9.35;42.81
42411;BME280;28056;51.112;0.984;2023-02-28T04:11:47;102194.72;;;9.04;43.86
42411;BME280;28056;51.112;0.984;2023-02-28T04:14:17;102193.04;;;9.11;44.33
42411;BME280;28056;51.112;0.984;2023-02-28T04:16:45;102188.76;;;9.10;43.27
42411;BME280;28056;51.112;0.984;2023-02-28T04:19:13;102186.84;;;9.05;44.02
42411;BME280;28056;51.112;0.984;2023-02-28T04:21:42;102193.57;;;9.20;45.06
42411;BME280;28056;51.112;0.984;2023-02-28T04:24:12;102191.49;;;9.39;44.87
42411;BME280;28056;51.112;0.984;2023-02-28T04:26:42;102190.20;;;9.05;44.09
42411;BME280;28056;51.112;0.984;2023-02-28T04:29:11;102192.64;;;9.58;43.29
42411;BME280;28056;51.112;0.984;2023-02-28T04:31:39;102192.14;;;9.27;44.16
42411;BME280;28056;51.112;0.984;2023-02-28T04:34:07;102195.24;;;9.09;43.38
42411;BME280;28056;51.112;0.984;2023-02-28T04:36:34;102198.48;;;9.12;44.11
42411;BME280;28056;51.112;0.984;2023-02-28T04:39:02;102202.11;;;9.06;44.42
42411;BME280;28056;51.112;0.984;2023-02-28T04:41:29;102201.54;;;9.52;45.98
42411;BME280;28056;51.112;0.984;2023-02-28T04:43:56;102201.67;;;9.25;45.39
42411;BME280;28056;51.112;0.984;2023-02-28T04:46:23;102201.41;;;8.97;44.89
42411;BME280;28056;51.112;0.984;2023-02-28T04:48:51;102206.66;;;9.67;45.04
42411;BME280;28056;51.112;0.984;2023-02-28T04:51:18;102211.00;;;9.24;44.75
42411;BME280;28056;51.112;0.984;2023-02-28T04:53:46;102212.84;;;9.46;45.33
42411;BME280;28056;51.112;0.984;2023-02-28T04:56:16;102218.96;;;9.63;43.12
42411;BME280;28056;51.112;0.984;2023-02-28T04:58:43;102218.74;;;9.76;45.23
42411;BME280;28056;51.112;0.984;2023-02-28T05:01:21;102218.51;;;9.61;45.48
42411;BME280;28056;51.112;0.984;2023-02-28T05:03:50;102221.84;;;9.54;44.98
42411;BME280;28056;51.112;0.984;2023-02-28T05:06:19;102223.18;;;9.49;45.80
42411;BME280;28056;51.112;0.984;2023-02-28T05:08:47;102222.28;;;10.10;45.98
42411;BME280;28056;51.112;0.984;2023-02-28T05:11:18;102218.31;;;9.76;45.44
42411;BME280;28056;51.112;0.984;2023-02-28T05:13:46;102218.99;;;9.86;45.20
42411;BME280;28056;51.112;0.984;2023-02-28T05:16:14;102216.75;;;9.87;45.66
42411;BME280;28056;51.112;0.984;2023-02-28T05:18:42;102215.35;;;9.78;45.16
42411;BME280;28056;51.112;0.984;2023-02-28T05:21:23;102211.98;;;9.77;45.21
42411;BME280;28056;51.112;0.984;2023-02-28T05:23:51;102213.54;;;9.79;45.52
42411;BME280;28056;51.112;0.984;2023-02-28T05:26:19;102214.33;;;9.61;46.26
42411;BME280;28056;51.112;0.984;2023-02-28T05:28:46;102214.04;;;9.69;47.39
42411;BME280;28056;51.112;0.984;2023-02-28T05:31:13;102212.25;;;10.34;47.66
42411;BME280;28056;51.112;0.984;2023-02-28T05:33:40;102212.51;;;9.92;48.21
42411;BME280;28056;51.112;0.984;2023-02-28T05:36:08;102210.01;;;10.30;47.61
42411;BME280;28056;51.112;0.984;2023-02-28T05:38:35;102205.69;;;10.06;47.95
42411;BME280;28056;51.112;0.984;2023-02-28T05:41:06;102203.73;;;9.93;48.02
42411;BME280;28056;51.112;0.984;2023-02-28T05:43:33;102203.33;;;10.06;48.24
42411;BME280;28056;51.112;0.984;2023-02-28T05:46:03;102207.95;;;9.46;48.52
42411;BME280;28056;51.112;0.984;2023-02-28T05:48:30;102207.20;;;9.53;49.49
42411;BME280;28056;51.112;0.984;2023-02-28T05:50:57;102207.63;;;9.66;51.29
42411;BME280;28056;51.112;0.984;2023-02-28T05:53:25;102206.98;;;9.32;49.52
42411;BME280;28056;51.112;0.984;2023-02-28T05:55:52;102209.74;;;9.27;51.15
42411;BME280;28056;51.112;0.984;2023-02-28T05:58:19;102211.62;;;9.40;50.60
42411;BME280;28056;51.112;0.984;2023-02-28T06:00:47;102212.96;;;8.59;51.53
42411;BME280;28056;51.112;0.984;2023-02-28T06:03:15;102214.27;;;9.41;50.96
42411;BME280;28056;51.112;0.984;2023-02-28T06:05:42;102214.86;;;9.41;50.79
42411;BME280;28056;51.112;0.984;2023-02-28T06:08:09;102213.15;;;9.47;52.38
42411;BME280;28056;51.112;0.984;2023-02-28T06:10:36;102210.55;;;8.86;52.88
42411;BME280;28056;51.112;0.984;2023-02-28T06:13:04;102211.99;;;9.46;52.10
42411;BME280;28056;51.112;0.984;2023-02-28T06:15:32;102213.76;;;9.41;50.98
42411;BME280;28056;51.112;0.984;2023-02-28T06:18:00;102212.72;;;9.38;51.00
42411;BME280;28056;51.112;0.984;2023-02-28T06:20:28;102210.65;;;9.20;51.99
42411;BME280;28056;51.112;0.984;2023-02-28T06:22:56;102209.54;;;9.04;51.32
42411;BME280;28056;51.112;0.984;2023-02-28T06:25:23;102209.36;;;8.71;53.12
42411;BME280;28056;51.112;0.984;2023-02-28T06:27:51;102210.07;;;8.66;49.83
42411;BME280;28056;51.112;0.984;2023-02-28T06:30:18;102210.76;;;8.34;49.62
42411;BME280;28056;51.112;0.984;2023-02-28T06:32:45;102211.98;;;6.84;52.28
42411;BME280;28056;51.112;0.984;2023-02-28T06:35:12;102210.93;;;6.42;52.43
42411;BME280;28056;51.112;0.984;2023-02-28T06:37:40;102210.76;;;6.08;53.25
42411;BME280;28056;51.112;0.984;2023-02-28T06:40:09;102208.80;;;6.31;53.01
42411;BME280;28056;51.112;0.984;2023-02-28T06:42:36;102212.93;;;6.33;53.85
42411;BME280;28056;51.112;0.984;2023-02-28T06:45:04;102212.91;;;5.62;54.71
42411;BME280;28056;51.112;0.984;2023-02-28T06:47:31;102213.89;;;5.71;54.38
42411;BME280;28056;51.112;0.984;2023-02-28T06:49:58;102214.49;;;5.53;54.97
42411;BME280;28056;51.112;0.984;2023-02-28T06:52:25;102221.44;;;5.07;55.91
42411;BME280;28056;51.112;0.984;2023-02-28T06:54:52;102223.50;;;4.95;55.34
42411;BME280;28056;51.112;0.984;2023-02-28T06:57:20;102226.42;;;5.03;55.83
42411;BME280;28056;51.112;0.984;2023-02-28T06:59:47;102229.24;;;4.81;56.14
42411;BME280;28056;51.112;0.984;2023-02-28T07:02:16;102233.45;;;4.69;55.94
42411;BME280;28056;51.112;0.984;2023-02-28T07:04:43;102235.74;;;4.79;55.79
42411;BME280;28056;51.112;0.984;2023-02-28T07:07:11;102238.98;;;5.32;56.04
42411;BME280;28056;51.112;0.984;2023-02-28T07:09:37;102243.19;;;4.50;57.56
42411;BME280;28056;51.112;0.984;2023-02-28T07:12:05;102245.89;;;5.59;56.43
42411;BME280;28056;51.112;0.984;2023-02-28T07:14:33;102241.77;;;4.68;58.76
42411;BME280;28056;51.112;0.984;2023-02-28T07:17:00;102246.50;;;5.01;59.79
42411;BME280;28056;51.112;0.984;2023-02-28T07:19:28;102249.74;;;4.84;60.22
42411;BME280;28056;51.112;0.984;2023-02-28T07:21:55;102252.90;;;4.92;60.28
42411;BME280;28056;51.112;0.984;2023-02-28T07:24:22;102250.62;;;5.25;60.25
42411;BME280;28056;51.112;0.984;2023-02-28T07:26:49;102250.45;;;4.57;61.76
42411;BME280;28056;51.112;0.984;2023-02-28T07:29:16;102252.90;;;5.27;60.71
42411;BME280;28056;51.112;0.984;2023-02-28T07:31:43;102251.21;;;4.82;61.17
42411;BME280;28056;51.112;0.984;2023-02-28T07:34:11;102252.79;;;3.77;62.85
42411;BME280;28056;51.112;0.984;2023-02-28T07:36:38;102259.02;;;4.81;61.45
42411;BME280;28056;51.112;0.984;2023-02-28T07:39:05;102258.79;;;4.86;61.55
42411;BME280;28056;51.112;0.984;2023-02-28T07:41:32;102259.77;;;5.44;60.62
42411;BME280;28056;51.112;0.984;2023-02-28T07:43:59;102260.53;;;5.59;59.64
42411;BME280;28056;51.112;0.984;2023-02-28T07:46:27;102261.38;;;5.05;60.78
42411;BME280;28056;51.112;0.984;2023-02-28T07:48:54;102257.94;;;4.83;61.83
42411;BME280;28056;51.112;0.984;2023-02-28T07:51:22;102257.97;;;5.43;60.70
42411;BME280;28056;51.112;0.984;2023-02-28T07:53:49;102257.72;;;5.41;60.82
42411;BME280;28056;51.112;0.984;2023-02-28T07:56:16;102252.59;;;5.70;60.47
42411;BME280;28056;51.112;0.984;2023-02-28T07:58:44;102246.88;;;5.54;60.57
42411;BME280;28056;51.112;0.984;2023-02-28T08:01:11;102250.59;;;5.90;61.07
42411;BME280;28056;51.112;0.984;2023-02-28T08:03:39;102248.85;;;5.78;61.00
42411;BME280;28056;51.112;0.984;2023-02-28T08:06:11;102245.10;;;5.86;61.16
42411;BME280;28056;51.112;0.984;2023-02-28T08:08:42;102242.00;;;5.95;61.03
42411;BME280;28056;51.112;0.984;2023-02-28T08:11:10;102243.53;;;5.64;62.11
42411;BME280;28056;51.112;0.984;2023-02-28T08:13:38;102245.24;;;5.26;63.01
42411;BME280;28056;51.112;0.984;2023-02-28T08:16:05;102243.26;;;4.76;64.55
42411;BME280;28056;51.112;0.984;2023-02-28T08:18:33;102239.68;;;4.60;65.53
42411;BME280;28056;51.112;0.984;2023-02-28T08:21:05;102240.89;;;4.96;65.65
42411;BME280;28056;51.112;0.984;2023-02-28T08:23:32;102244.90;;;5.22;65.37
42411;BME280;28056;51.112;0.984;2023-02-28T08:25:59;102243.25;;;4.27;67.79
42411;BME280;28056;51.112;0.984;2023-02-28T08:28:26;102239.58;;;4.59;66.97
42411;BME280;28056;51.112;0.984;2023-02-28T08:30:54;102239.55;;;4.74;67.33
42411;BME280;28056;51.112;0.984;2023-02-28T08:33:21;102238.21;;;4.82;66.47
42411;BME280;28056;51.112;0.984;2023-02-28T08:35:48;102237.75;;;5.35;66.34
42411;BME280;28056;51.112;0.984;2023-02-28T08:38:18;102242.08;;;5.19;66.11
42411;BME280;28056;51.112;0.984;2023-02-28T08:40:45;102242.53;;;4.91;66.42
42411;BME280;28056;51.112;0.984;2023-02-28T08:43:12;102245.13;;;5.21;68.26
42411;BME280;28056;51.112;0.984;2023-02-28T08:45:39;102243.67;;;5.70;65.06
42411;BME280;28056;51.112;0.984;2023-02-28T08:48:07;102243.12;;;5.27;65.40
42411;BME280;28056;51.112;0.984;2023-02-28T08:50:34;102245.76;;;5.43;64.50
42411;BME280;28056;51.112;0.984;2023-02-28T08:53:01;102246.68;;;5.49;64.53
42411;BME280;28056;51.112;0.984;2023-02-28T08:55:28;102248.02;;;5.44;65.47
42411;BME280;28056;51.112;0.984;2023-02-28T08:57:56;102246.11;;;5.88;64.26
42411;BME280;28056;51.112;0.984;2023-02-28T09:00:23;102249.30;;;5.95;64.12
42411;BME280;28056;51.112;0.984;2023-02-28T09:02:51;102250.05;;;6.07;64.23
42411;BME280;28056;51.112;0.984;2023-02-28T09:05:18;102250.89;;;5.84;64.48
42411;BME280;28056;51.112;0.984;2023-02-28T09:07:45;102251.75;;;5.97;64.89
42411;BME280;28056;51.112;0.984;2023-02-28T09:10:12;102252.78;;;6.44;63.63
42411;BME280;28056;51.112;0.984;2023-02-28T09:12:39;102248.91;;;6.73;63.01
42411;BME280;28056;51.112;0.984;2023-02-28T09:15:13;102245.38;;;6.86;61.16
42411;BME280;28056;51.112;0.984;2023-02-28T09:17:40;102243.51;;;6.74;60.68
42411;BME280;28056;51.112;0.984;2023-02-28T09:20:09;102247.16;;;6.47;60.89
42411;BME280;28056;51.112;0.984;2023-02-28T09:22:36;102255.73;;;6.39;61.08
42411;BME280;28056;51.112;0.984;2023-02-28T09:25:04;102248.73;;;5.64;62.68
42411;BME280;28056;51.112;0.984;2023-02-28T09:27:31;102246.60;;;5.86;62.08
42411;BME280;28056;51.112;0.984;2023-02-28T09:29:58;102249.89;;;5.89;62.44
42411;BME280;28056;51.112;0.984;2023-02-28T09:32:25;102233.84;;;5.81;63.04
42411;BME280;28056;51.112;0.984;2023-02-28T09:34:52;102230.74;;;5.86;63.85
42411;BME280;28056;51.112;0.984;2023-02-28T09:37:19;102230.18;;;6.02;63.51
42411;BME280;28056;51.112;0.984;2023-02-28T09:39:46;102239.73;;;6.21;62.58
42411;BME280;28056;51.112;0.984;2023-02-28T09:42:22;102231.40;;;6.12;62.22
42411;BME280;28056;51.112;0.984;2023-02-28T09:44:51;102227.24;;;7.33;60.67
42411;BME280;28056;51.112;0.984;2023-02-28T09:47:27;102225.85;;;7.40;60.22
42411;BME280;28056;51.112;0.984;2023-02-28T09:49:59;102222.59;;;7.79;58.58
42411;BME280;28056;51.112;0.984;2023-02-28T09:52:32;102221.24;;;8.11;59.49
42411;BME280;28056;51.112;0.984;2023-02-28T09:55:08;102220.78;;;8.29;56.80
42411;BME280;28056;51.112;0.984;2023-02-28T09:57:43;102226.23;;;7.50;57.39
42411;BME280;28056;51.112;0.984;2023-02-28T10:00:15;102214.52;;;7.26;58.00
42411;BME280;28056;51.112;0.984;2023-02-28T10:00:19;102210.92;;;7.28;57.85
42411;BME280;28056;51.112;0.984;2023-02-28T10:02:59;102224.05;;;6.47;60.08
42411;BME280;28056;51.112;0.984;2023-02-28T10:05:34;102225.02;;;7.50;57.89
42411;BME280;28056;51.112;0.984;2023-02-28T10:08:11;102223.69;;;6.79;58.68
42411;BME280;28056;51.112;0.984;2023-02-28T10:10:41;102213.19;;;6.23;59.71
42411;BME280;28056;51.112;0.984;2023-02-28T10:13:16;102214.93;;;7.21;58.13
42411;BME280;28056;51.112;0.984;2023-02-28T10:15:48;102218.62;;;7.36;57.73
42411;BME280;28056;51.112;0.984;2023-02-28T10:18:22;102221.40;;;7.06;58.42
42411;BME280;28056;51.112;0.984;2023-02-28T10:20:51;102222.18;;;7.46;58.11
42411;BME280;28056;51.112;0.984;2023-02-28T10:23:24;102221.17;;;7.40;58.40
42411;BME280;28056;51.112;0.984;2023-02-28T10:25:57;102215.83;;;7.26;58.42
42411;BME280;28056;51.112;0.984;2023-02-28T10:28:26;102216.19;;;7.23;58.43
42411;BME280;28056;51.112;0.984;2023-02-28T10:30:56;102216.18;;;7.22;58.99
42411;BME280;28056;51.112;0.984;2023-02-28T10:33:25;102205.82;;;7.02;58.24
42411;BME280;28056;51.112;0.984;2023-02-28T10:35:55;102195.40;;;8.06;58.51
42411;BME280;28056;51.112;0.984;2023-02-28T10:38:24;102191.32;;;8.34;60.03
42411;BME280;28056;51.112;0.984;2023-02-28T10:40:52;102197.58;;;9.31;56.32
42411;BME280;28056;51.112;0.984;2023-02-28T10:43:30;102189.48;;;8.74;53.06
42411;BME280;28056;51.112;0.984;2023-02-28T10:46:01;102185.24;;;8.89;52.99
42411;BME280;28056;51.112;0.984;2023-02-28T10:48:34;102187.28;;;8.37;53.84
42411;BME280;28056;51.112;0.984;2023-02-28T10:51:05;102187.76;;;7.75;54.82
42411;BME280;28056;51.112;0.984;2023-02-28T10:53:36;102194.14;;;7.04;57.94
42411;BME280;28056;51.112;0.984;2023-02-28T10:56:12;102184.85;;;7.54;56.44
42411;BME280;28056;51.112;0.984;2023-02-28T10:58:49;102177.09;;;7.25;57.80
42411;BME280;28056;51.112;0.984;2023-02-28T11:01:19;102183.33;;;7.62;57.15
42411;BME280;28056;51.112;0.984;2023-02-28T11:03:47;102173.85;;;7.70;56.57
42411;BME280;28056;51.112;0.984;2023-02-28T11:06:17;102179.92;;;6.96;58.21
42411;BME280;28056;51.112;0.984;2023-02-28T11:08:49;102175.37;;;6.46;58.76
42411;BME280;28056;51.112;0.984;2023-02-28T11:11:17;102169.72;;;7.17;58.24
42411;BME280;28056;51.112;0.984;2023-02-28T11:13:47;102170.84;;;7.35;57.81
42411;BME280;28056;51.112;0.984;2023-02-28T11:16:17;102178.93;;;7.36;57.35
42411;BME280;28056;51.112;0.984;2023-02-28T11:18:49;102175.81;;;7.70;57.33
42411;BME280;28056;51.112;0.984;2023-02-28T11:21:22;102183.27;;;7.72;56.22
42411;BME280;28056;51.112;0.984;2023-02-28T11:23:53;102175.29;;;7.98;54.70
42411;BME280;28056;51.112;0.984;2023-02-28T11:26:40;102174.88;;;7.28;55.74
42411;BME280;28056;51.112;0.984;2023-02-28T11:29:12;102176.25;;;7.49;57.66
42411;BME280;28056;51.112;0.984;2023-02-28T11:31:42;102173.52;;;6.25;59.77
42411;BME280;28056;51.112;0.984;2023-02-28T11:34:27;102173.92;;;6.68;58.24
42411;BME280;28056;51.112;0.984;2023-02-28T11:36:57;102169.00;;;6.44;60.69
42411;BME280;28056;51.112;0.984;2023-02-28T11:39:25;102164.91;;;7.27;57.91
42411;BME280;28056;51.112;0.984;2023-02-28T11:42:06;102158.44;;;7.40;57.29
42411;BME280;28056;51.112;0.984;2023-02-28T11:44:47;102167.63;;;6.75;59.21
42411;BME280;28056;51.112;0.984;2023-02-28T11:47:26;102166.86;;;7.39;58.90
42411;BME280;28056;51.112;0.984;2023-02-28T11:50:09;102165.33;;;7.65;57.46
42411;BME280;28056;51.112;0.984;2023-02-28T11:52:47;102163.11;;;7.92;55.73
42411;BME280;28056;51.112;0.984;2023-02-28T11:55:19;102163.94;;;6.74;59.58
42411;BME280;28056;51.112;0.984;2023-02-28T11:57:57;102156.54;;;7.27;59.09
42411;BME280;28056;51.112;0.984;2023-02-28T12:00:36;102152.79;;;8.15;56.56
42411;BME280;28056;51.112;0.984;2023-02-28T12:03:15;102152.90;;;7.73;56.62
42411;BME280;28056;51.112;0.984;2023-02-28T12:05:49;102146.29;;;8.39;56.43
42411;BME280;28056;51.112;0.984;2023-02-28T12:08:29;102140.45;;;8.01;56.66
42411;BME280;28056;51.112;0.984;2023-02-28T12:11:11;102136.90;;;7.21;58.50
42411;BME280;28056;51.112;0.984;2023-02-28T12:13:49;102140.60;;;7.51;58.45
42411;BME280;28056;51.112;0.984;2023-02-28T12:16:31;102141.43;;;6.52;60.63
42411;BME280;28056;51.112;0.984;2023-02-28T12:19:11;102137.52;;;6.71;61.88
42411;BME280;28056;51.112;0.984;2023-02-28T12:21:51;102132.85;;;6.40;62.68
42411;BME280;28056;51.112;0.984;2023-02-28T12:24:37;102127.69;;;6.59;63.13
42411;BME280;28056;51.112;0.984;2023-02-28T12:27:10;102114.00;;;7.31;62.19
42411;BME280;28056;51.112;0.984;2023-02-28T12:29:45;102113.51;;;6.56;62.96
42411;BME280;28056;51.112;0.984;2023-02-28T12:32:18;102110.98;;;6.46;64.85
42411;BME280;28056;51.112;0.984;2023-02-28T12:34:50;102097.74;;;6.64;64.87
42411;BME280;28056;51.112;0.984;2023-02-28T12:37:22;102085.79;;;6.70;64.97
42411;BME280;28056;51.112;0.984;2023-02-28T12:39:59;102082.26;;;7.19;65.12
42411;BME280;28056;51.112;0.984;2023-02-28T12:42:29;102077.70;;;6.95;65.33
42411;BME280;28056;51.112;0.984;2023-02-28T12:45:00;102079.67;;;7.55;65.90
42411;BME280;28056;51.112;0.984;2023-02-28T12:47:29;102081.20;;;7.69;65.54
42411;BME280;28056;51.112;0.984;2023-02-28T12:49:59;102075.09;;;7.28;67.40
42411;BME280;28056;51.112;0.984;2023-02-28T12:52:35;102071.11;;;7.34;64.82
42411;BME280;28056;51.112;0.984;2023-02-28T12:55:07;102071.30;;;7.17;65.53
42411;BME280;28056;51.112;0.984;2023-02-28T12:57:41;102067.32;;;7.31;65.48
42411;BME280;28056;51.112;0.984;2023-02-28T13:00:14;102064.49;;;5.72;68.97
42411;BME280;28056;51.112;0.984;2023-02-28T13:03:03;102054.79;;;6.59;68.22
42411;BME280;28056;51.112;0.984;2023-02-28T13:06:55;102055.34;;;6.89;66.28
42411;BME280;28056;51.112;0.984;2023-02-28T13:09:26;102049.42;;;7.11;66.69
42411;BME280;28056;51.112;0.984;2023-02-28T13:11:54;102041.72;;;6.56;66.53
42411;BME280;28056;51.112;0.984;2023-02-28T13:14:29;102037.58;;;6.60;66.45
42411;BME280;28056;51.112;0.984;2023-02-28T13:17:02;102038.76;;;6.93;65.54
42411;BME280;28056;51.112;0.984;2023-02-28T13:19:39;102040.26;;;5.83;67.85